Terminal Aerodrome Forecast
Issued by NWS Portland, ME

Home | Current Version | Previous Version | Text Only | Print | Product List | Glossary On
Versions: 1 2 3 4 5 6 7 8 9 10 11 12 13 14 15 16 17
000
FTUS41 KGYX 230520
TAFPWM
TAF
KPWM 230520Z 2306/2406 VRB03KT 6SM BR SCT250
     FM231400 20006KT P6SM SCT015 SCT060=

USA.gov is the U.S. government's official web portal to all federal, state and local government web resources and services.